Time;durP1;ratioP1;P1;durP2;ratioP2;P2;SDS_P1;SDS_P2;PMS_P1;PMS_P2;Temp;Humidity;BMP_temperature;BMP_pressure;BME280_temperature;BME280_humidity;BME280_pressure;Samples;Min_cycle;Max_cycle;Signal;HPM_P1;HPM_P2
2023/04/30 00:01:41;;;;;;;14.63;10.27;;;8.10;99.90;;;;;;5033454;28;20589;-49
2023/04/30 00:04:06;;;;;;;14.40;10.40;;;8.20;99.90;;;;;;5033593;28;20206;-50
2023/04/30 00:06:32;;;;;;;15.43;10.20;;;8.20;99.90;;;;;;5033046;28;20618;-50
2023/04/30 00:08:58;;;;;;;13.93;9.13;;;8.20;99.90;;;;;;5033562;28;20265;-51
2023/04/30 00:11:24;;;;;;;15.77;10.17;;;8.20;99.90;;;;;;5033558;28;20206;-49
2023/04/30 00:13:50;;;;;;;16.80;9.57;;;8.30;99.90;;;;;;5033387;28;20208;-49
2023/04/30 00:16:16;;;;;;;12.80;9.47;;;8.30;99.90;;;;;;5034219;28;20185;-51
2023/04/30 00:18:42;;;;;;;13.47;9.43;;;8.30;99.90;;;;;;5045262;28;20196;-48
2023/04/30 00:21:07;;;;;;;15.60;10.03;;;8.40;99.90;;;;;;5045811;28;20176;-49
2023/04/30 00:23:33;;;;;;;16.27;9.70;;;8.30;99.90;;;;;;5015684;28;20216;-50
2023/04/30 00:25:58;;;;;;;11.60;9.43;;;8.30;99.90;;;;;;5033595;28;20547;-49
2023/04/30 00:28:24;;;;;;;14.53;9.93;;;8.30;99.90;;;;;;5033272;28;20181;-45
2023/04/30 00:30:50;;;;;;;12.47;8.50;;;8.30;99.90;;;;;;5033529;28;20174;-45
2023/04/30 00:33:15;;;;;;;13.57;9.83;;;8.30;99.90;;;;;;5033129;28;20233;-47
2023/04/30 00:35:41;;;;;;;11.90;9.27;;;8.30;99.90;;;;;;5015399;28;20180;-45
2023/04/30 00:38:07;;;;;;;11.07;8.47;;;8.30;99.90;;;;;;5033455;28;20182;-45
2023/04/30 00:40:37;;;;;;;14.73;9.10;;;8.30;99.90;;;;;;5033078;28;20232;-47
2023/04/30 00:43:02;;;;;;;12.43;8.67;;;8.20;99.90;;;;;;5032893;28;20240;-44
2023/04/30 00:45:28;;;;;;;13.33;8.73;;;8.30;99.90;;;;;;5033004;28;20198;-45
2023/04/30 00:47:53;;;;;;;11.63;8.27;;;8.20;99.90;;;;;;5032993;28;20194;-45
2023/04/30 00:50:21;;;;;;;12.73;8.93;;;8.20;99.90;;;;;;5032899;28;20186;-49
2023/04/30 00:52:46;;;;;;;15.07;8.77;;;8.20;99.90;;;;;;5033077;28;20236;-49
2023/04/30 00:55:13;;;;;;;12.10;8.83;;;8.10;99.90;;;;;;5032923;28;20181;-51
2023/04/30 00:57:42;;;;;;;11.77;8.90;;;8.10;99.90;;;;;;5033141;28;20645;-51
2023/04/30 01:00:10;;;;;;;14.67;9.10;;;8.20;99.90;;;;;;5033088;28;20178;-51
2023/04/30 01:02:39;;;;;;;15.30;8.83;;;8.20;99.90;;;;;;5033005;28;20236;-49
2023/04/30 01:05:06;;;;;;;11.97;8.53;;;8.10;99.90;;;;;;5033015;28;20571;-50
2023/04/30 01:07:33;;;;;;;13.33;8.63;;;8.10;99.90;;;;;;5032798;28;20201;-49
2023/04/30 01:09:59;;;;;;;12.07;8.40;;;8.10;99.90;;;;;;5032775;28;20180;-49
2023/04/30 01:12:36;;;;;;;14.37;8.87;;;8.10;99.90;;;;;;5032674;28;20594;-51
2023/04/30 01:15:02;;;;;;;12.90;8.40;;;8.10;99.90;;;;;;5032995;28;20177;-50
2023/04/30 01:17:44;;;;;;;15.77;9.17;;;8.00;99.90;;;;;;5032982;28;20177;-51
2023/04/30 01:20:10;;;;;;;12.73;9.13;;;8.00;99.90;;;;;;5036556;28;20169;-44
2023/04/30 01:22:55;;;;;;;14.27;9.17;;;8.00;99.90;;;;;;5036260;28;20225;-45
2023/04/30 01:25:46;;;;;;;15.43;9.30;;;8.00;99.90;;;;;;5036483;28;20188;-45
2023/04/30 01:28:21;;;;;;;12.47;8.77;;;7.90;99.90;;;;;;4990216;28;20193;-46
2023/04/30 01:30:47;;;;;;;12.67;8.60;;;7.90;99.90;;;;;;5036424;28;20167;-46
2023/04/30 01:33:13;;;;;;;19.47;9.40;;;7.90;99.90;;;;;;5018253;28;20202;-51
2023/04/30 01:36:03;;;;;;;14.67;9.50;;;7.90;99.90;;;;;;5036355;28;20208;-51
2023/04/30 01:38:55;;;;;;;11.73;8.80;;;7.90;99.90;;;;;;5036592;28;20165;-47
2023/04/30 01:41:46;;;;;;;14.23;9.20;;;7.90;99.90;;;;;;5035527;28;20292;-49
2023/04/30 01:44:33;;;;;;;15.47;8.83;;;7.80;99.90;;;;;;5036171;28;20642;-46
2023/04/30 01:47:05;;;;;;;13.77;9.37;;;7.80;99.90;;;;;;5035806;28;20180;-47
2023/04/30 01:49:55;;;;;;;14.77;9.73;;;7.70;99.90;;;;;;5035706;28;20201;-46
2023/04/30 01:52:50;;;;;;;14.80;10.17;;;7.70;99.90;;;;;;5035868;28;20246;-47
2023/04/30 01:55:54;;;;;;;17.37;10.20;;;7.70;99.90;;;;;;5036001;28;20162;-47
2023/04/30 01:58:21;;;;;;;14.33;9.90;;;7.60;99.90;;;;;;5035982;28;20538;-46
2023/04/30 02:00:47;;;;;;;14.43;9.53;;;7.50;99.90;;;;;;5035634;28;20235;-50
2023/04/30 02:03:12;;;;;;;13.40;10.00;;;7.50;99.90;;;;;;5036050;28;20661;-49
2023/04/30 02:05:38;;;;;;;13.97;9.37;;;7.50;99.90;;;;;;5036045;28;20178;-50
2023/04/30 02:08:04;;;;;;;19.07;10.03;;;7.40;99.90;;;;;;5035717;28;20205;-50
2023/04/30 02:10:29;;;;;;;14.20;9.73;;;7.40;99.90;;;;;;5035452;28;20228;-51
2023/04/30 02:12:57;;;;;;;13.40;9.53;;;7.40;99.90;;;;;;5035609;28;20204;-48
2023/04/30 02:15:23;;;;;;;15.20;10.27;;;7.30;99.90;;;;;;5036452;28;20212;-48
2023/04/30 02:17:48;;;;;;;15.83;9.73;;;7.30;99.90;;;;;;5017650;28;20188;-50
2023/04/30 02:20:14;;;;;;;15.57;10.27;;;7.20;99.90;;;;;;5035215;28;20330;-50
2023/04/30 02:22:40;;;;;;;16.47;10.20;;;7.20;99.90;;;;;;5017334;28;20258;-48
2023/04/30 02:25:06;;;;;;;12.70;9.67;;;7.10;99.90;;;;;;5035326;28;20204;-48
2023/04/30 02:27:33;;;;;;;17.47;10.37;;;7.10;99.90;;;;;;5035292;28;20196;-50
2023/04/30 02:29:59;;;;;;;15.97;10.53;;;7.00;99.90;;;;;;5034397;28;20192;-49
2023/04/30 02:32:25;;;;;;;18.87;9.20;;;7.00;99.90;;;;;;5034921;28;20201;-49
2023/04/30 02:34:50;;;;;;;13.83;9.90;;;6.90;99.90;;;;;;5035091;28;20291;-48
2023/04/30 02:37:16;;;;;;;13.70;10.03;;;6.90;99.90;;;;;;5035184;28;20641;-50
2023/04/30 02:39:41;;;;;;;14.97;10.17;;;6.90;99.90;;;;;;5034815;28;20645;-50
2023/04/30 02:42:07;;;;;;;12.67;9.40;;;6.80;99.90;;;;;;5034808;28;20208;-50
2023/04/30 02:44:33;;;;;;;14.77;10.50;;;6.70;99.90;;;;;;5034907;28;20201;-49
2023/04/30 02:46:59;;;;;;;13.30;10.03;;;6.70;99.90;;;;;;5034987;28;20216;-50
2023/04/30 02:49:25;;;;;;;13.27;9.60;;;6.70;99.90;;;;;;5034635;28;20222;-52
2023/04/30 02:51:51;;;;;;;13.43;9.90;;;6.70;99.90;;;;;;5034524;28;20211;-51
2023/04/30 02:54:16;;;;;;;13.27;9.23;;;6.60;99.90;;;;;;5034936;28;20641;-49
2023/04/30 02:56:43;;;;;;;13.20;9.53;;;6.50;99.90;;;;;;5034794;28;20192;-49
2023/04/30 02:59:09;;;;;;;14.60;10.30;;;6.50;99.90;;;;;;5034509;28;20612;-52
2023/04/30 03:01:34;;;;;;;16.23;10.20;;;6.50;99.90;;;;;;5034608;28;20223;-51
2023/04/30 03:04:02;;;;;;;14.77;9.67;;;6.40;99.90;;;;;;5034637;28;20262;-49
2023/04/30 03:06:28;;;;;;;13.07;9.53;;;6.50;99.90;;;;;;5034598;28;20177;-49
2023/04/30 03:08:53;;;;;;;12.77;9.90;;;6.40;99.90;;;;;;5034265;28;20533;-50
2023/04/30 03:11:20;;;;;;;14.70;10.00;;;6.40;99.90;;;;;;5034315;28;20176;-50
2023/04/30 03:13:50;;;;;;;17.03;10.77;;;6.40;99.90;;;;;;5034113;28;20203;-49
2023/04/30 03:16:16;;;;;;;12.00;9.20;;;6.30;99.90;;;;;;5034143;28;20278;-51
2023/04/30 03:18:42;;;;;;;14.60;9.43;;;6.30;99.90;;;;;;5034164;28;20184;-50
2023/04/30 03:21:08;;;;;;;12.33;9.37;;;6.30;99.90;;;;;;5034209;28;20177;-50
2023/04/30 03:23:34;;;;;;;12.73;9.93;;;6.20;99.90;;;;;;5034454;28;20213;-48
2023/04/30 03:26:00;;;;;;;15.00;9.40;;;6.20;99.90;;;;;;5034846;28;20176;-49
2023/04/30 03:28:25;;;;;;;12.93;9.97;;;6.10;99.90;;;;;;5037905;28;20177;-48
2023/04/30 03:30:51;;;;;;;13.17;9.87;;;6.10;99.90;;;;;;5043366;28;20192;-48
2023/04/30 03:33:17;;;;;;;14.70;9.90;;;6.00;99.90;;;;;;5019880;28;20287;-50
2023/04/30 03:35:42;;;;;;;14.77;11.13;;;6.00;99.90;;;;;;5034251;28;20188;-50
2023/04/30 03:38:08;;;;;;;15.43;9.43;;;5.90;99.90;;;;;;5033792;28;20641;-50
2023/04/30 03:40:33;;;;;;;16.27;10.77;;;6.00;99.90;;;;;;5033865;28;20169;-50
2023/04/30 03:42:59;;;;;;;15.60;10.23;;;5.90;99.90;;;;;;5033862;28;20247;-49
2023/04/30 03:45:24;;;;;;;16.07;10.47;;;5.90;99.90;;;;;;5033614;28;20247;-51
2023/04/30 03:47:51;;;;;;;15.73;10.47;;;5.90;99.90;;;;;;5033592;28;20193;-52
2023/04/30 03:50:17;;;;;;;16.10;11.03;;;5.90;99.90;;;;;;5033633;28;20184;-48
2023/04/30 03:52:43;;;;;;;19.63;10.37;;;5.80;99.90;;;;;;5033502;28;20204;-51
2023/04/30 03:55:09;;;;;;;16.67;11.70;;;5.80;99.90;;;;;;5033520;28;20184;-49
2023/04/30 03:57:35;;;;;;;17.67;10.80;;;5.80;99.90;;;;;;5033800;28;20197;-50
2023/04/30 04:00:06;;;;;;;13.30;10.17;;;5.80;99.90;;;;;;5033689;28;20257;-51
2023/04/30 04:02:32;;;;;;;16.67;11.00;;;5.80;99.90;;;;;;5033731;28;20200;-50
2023/04/30 04:04:58;;;;;;;15.77;10.73;;;5.80;99.90;;;;;;5033308;28;20258;-50
2023/04/30 04:07:23;;;;;;;14.20;10.63;;;5.70;99.90;;;;;;5033669;28;20245;-51
2023/04/30 04:09:49;;;;;;;15.60;10.47;;;5.60;99.90;;;;;;5033436;28;20181;-51
2023/04/30 04:12:14;;;;;;;13.53;10.33;;;5.70;99.90;;;;;;5033279;28;20224;-51
2023/04/30 04:14:40;;;;;;;15.37;10.50;;;5.60;99.90;;;;;;5034290;28;20273;-50
2023/04/30 04:17:07;;;;;;;14.67;10.10;;;5.50;99.90;;;;;;5033656;28;20204;-50
2023/04/30 04:19:32;;;;;;;15.80;9.97;;;5.50;99.90;;;;;;5033745;28;20220;-50
2023/04/30 04:21:58;;;;;;;20.10;10.87;;;5.50;99.90;;;;;;5033505;28;20254;-50
2023/04/30 04:24:24;;;;;;;15.87;9.13;;;5.40;99.90;;;;;;5033368;28;20216;-51
2023/04/30 04:26:50;;;;;;;14.40;10.37;;;5.40;99.90;;;;;;5033820;28;20172;-50
2023/04/30 04:29:16;;;;;;;14.43;10.43;;;5.40;99.90;;;;;;5033164;28;20184;-50
2023/04/30 04:31:42;;;;;;;16.27;10.63;;;5.40;99.90;;;;;;5033428;28;20191;-50
2023/04/30 04:34:07;;;;;;;16.03;11.37;;;5.40;99.90;;;;;;5033375;28;20182;-49
2023/04/30 04:36:33;;;;;;;18.23;11.90;;;5.40;99.90;;;;;;5033105;28;20546;-50
2023/04/30 04:39:02;;;;;;;18.47;11.53;;;5.40;99.90;;;;;;5033418;28;20181;-50
2023/04/30 04:41:32;;;;;;;18.73;12.13;;;5.40;99.90;;;;;;5033178;28;20189;-50
2023/04/30 04:43:58;;;;;;;17.40;12.37;;;5.40;99.90;;;;;;5032932;28;20258;-50
2023/04/30 04:46:24;;;;;;;20.10;12.10;;;5.50;99.90;;;;;;5033317;28;20589;-51
2023/04/30 04:48:52;;;;;;;16.50;11.40;;;5.50;99.90;;;;;;5032977;28;20227;-50
2023/04/30 04:51:17;;;;;;;13.70;9.67;;;5.50;99.90;;;;;;5033230;28;20558;-50
2023/04/30 04:53:43;;;;;;;15.07;9.87;;;5.50;99.90;;;;;;5034562;28;20202;-51
2023/04/30 04:56:09;;;;;;;13.00;8.90;;;5.50;99.90;;;;;;5036890;28;20184;-50
2023/04/30 04:58:35;;;;;;;14.87;9.53;;;5.50;99.90;;;;;;5036772;28;20537;-50
2023/04/30 05:01:01;;;;;;;11.40;8.73;;;5.50;99.90;;;;;;5036788;28;20205;-49
2023/04/30 05:03:27;;;;;;;12.27;7.60;;;5.50;99.90;;;;;;5036801;28;20219;-49
2023/04/30 05:05:53;;;;;;;13.83;9.17;;;5.40;99.90;;;;;;5036687;28;20685;-50
2023/04/30 05:08:19;;;;;;;14.27;9.50;;;5.40;99.90;;;;;;5036588;28;20184;-50
2023/04/30 05:10:45;;;;;;;9.63;7.97;;;5.40;99.90;;;;;;5037173;28;20263;-49
2023/04/30 05:13:10;;;;;;;11.57;9.07;;;5.40;99.90;;;;;;5036483;28;20193;-51
2023/04/30 05:15:36;;;;;;;13.93;10.17;;;5.50;99.90;;;;;;5036592;28;20183;-49
2023/04/30 05:18:02;;;;;;;16.17;10.60;;;5.50;99.90;;;;;;5018664;28;20689;-51
2023/04/30 05:20:28;;;;;;;11.70;8.67;;;5.50;99.90;;;;;;5036331;28;20186;-49
2023/04/30 05:22:53;;;;;;;13.37;9.47;;;5.60;99.90;;;;;;5036551;28;20200;-47
2023/04/30 05:25:19;;;;;;;17.30;11.33;;;5.60;99.90;;;;;;5036281;28;20208;-50
2023/04/30 05:27:45;;;;;;;16.63;10.67;;;5.70;99.90;;;;;;5036544;28;20222;-50
2023/04/30 05:30:11;;;;;;;13.97;10.53;;;5.80;99.90;;;;;;5036572;28;20201;-49
2023/04/30 05:32:36;;;;;;;15.10;10.60;;;5.90;99.90;;;;;;5036091;28;20197;-49
2023/04/30 05:35:02;;;;;;;15.63;10.93;;;6.10;99.90;;;;;;5036484;28;20188;-50
2023/04/30 05:37:28;;;;;;;22.90;13.13;;;6.30;99.90;;;;;;5036112;28;20274;-49
2023/04/30 05:39:53;;;;;;;20.63;13.87;;;6.40;99.90;;;;;;5036312;28;20195;-50
2023/04/30 05:42:20;;;;;;;25.50;14.47;;;6.50;99.90;;;;;;5036048;28;20663;-51
2023/04/30 05:44:45;;;;;;;22.93;15.03;;;6.60;99.90;;;;;;5036239;28;20594;-50
2023/04/30 05:47:11;;;;;;;26.27;15.63;;;6.70;99.90;;;;;;5036498;28;20173;-52
2023/04/30 05:49:37;;;;;;;22.27;15.53;;;6.80;99.90;;;;;;5018257;28;20188;-50
2023/04/30 05:52:03;;;;;;;19.57;14.10;;;6.90;99.90;;;;;;5036066;28;20198;-50
2023/04/30 05:54:29;;;;;;;18.47;14.43;;;7.00;99.90;;;;;;5018160;28;20185;-51
2023/04/30 05:56:55;;;;;;;24.50;15.97;;;7.10;99.90;;;;;;5035760;28;20176;-50
2023/04/30 05:59:20;;;;;;;19.87;14.43;;;7.20;99.90;;;;;;5035944;28;20188;-50
2023/04/30 06:01:46;;;;;;;23.43;14.60;;;7.30;99.90;;;;;;5035884;28;20661;-49
2023/04/30 06:04:11;;;;;;;26.67;14.43;;;7.40;99.90;;;;;;5034983;28;20208;-50
2023/04/30 06:06:37;;;;;;;20.63;14.50;;;7.40;99.90;;;;;;5034943;28;20169;-51
2023/04/30 06:09:02;;;;;;;24.47;13.30;;;7.50;99.90;;;;;;5035516;28;20675;-51
2023/04/30 06:11:29;;;;;;;21.13;14.40;;;7.60;99.90;;;;;;5035619;28;20540;-49
2023/04/30 06:13:55;;;;;;;17.03;12.83;;;7.70;99.90;;;;;;5018067;28;20228;-51
2023/04/30 06:16:21;;;;;;;20.37;13.60;;;7.90;99.90;;;;;;5035547;28;20585;-49
2023/04/30 06:18:46;;;;;;;19.70;13.03;;;8.00;99.90;;;;;;5035457;28;20284;-51
2023/04/30 06:21:12;;;;;;;17.83;12.83;;;8.20;99.90;;;;;;5018460;28;20185;-49
2023/04/30 06:23:37;;;;;;;20.43;14.37;;;8.30;99.90;;;;;;5036089;28;20262;-49
2023/04/30 06:26:03;;;;;;;19.20;13.90;;;8.40;99.90;;;;;;5036284;28;20248;-51
2023/04/30 06:28:29;;;;;;;18.37;13.13;;;8.40;99.90;;;;;;5036617;28;20664;-50
2023/04/30 06:30:55;;;;;;;17.97;12.87;;;8.50;99.90;;;;;;5044103;28;20177;-49
2023/04/30 06:33:21;;;;;;;20.70;12.77;;;8.70;99.90;;;;;;5034590;28;20197;-49
2023/04/30 06:35:46;;;;;;;19.20;13.43;;;8.80;99.90;;;;;;5042042;28;20271;-51
2023/04/30 06:38:13;;;;;;;19.83;13.87;;;9.00;99.90;;;;;;5035284;28;20292;-50
2023/04/30 06:40:38;;;;;;;15.90;12.03;;;9.00;99.90;;;;;;5035271;28;20187;-50
2023/04/30 06:43:04;;;;;;;21.77;12.23;;;9.10;99.90;;;;;;5017603;28;20655;-50
2023/04/30 06:45:30;;;;;;;17.37;12.50;;;9.20;99.90;;;;;;5035008;28;20237;-50
2023/04/30 06:47:56;;;;;;;15.90;11.23;;;9.30;99.90;;;;;;5034701;28;20682;-49
2023/04/30 06:50:22;;;;;;;19.20;11.20;;;9.60;99.90;;;;;;5034665;28;20691;-50
2023/04/30 06:52:47;;;;;;;18.40;12.10;;;9.80;99.90;;;;;;5035087;28;20238;-50
2023/04/30 06:55:13;;;;;;;15.93;11.77;;;9.90;99.90;;;;;;5034852;28;20191;-49
2023/04/30 06:57:39;;;;;;;16.63;11.83;;;10.00;99.90;;;;;;5034497;28;20181;-49
2023/04/30 07:00:05;;;;;;;17.63;12.20;;;10.00;99.90;;;;;;5034759;28;20243;-50
2023/04/30 07:02:31;;;;;;;16.67;11.63;;;10.00;99.90;;;;;;5034728;28;20204;-51
2023/04/30 07:04:57;;;;;;;18.43;11.93;;;10.00;99.90;;;;;;5034343;28;20212;-51
2023/04/30 07:07:22;;;;;;;20.63;11.67;;;10.10;99.90;;;;;;5034360;28;20176;-49
2023/04/30 07:09:48;;;;;;;16.80;12.10;;;10.20;99.90;;;;;;5034789;28;20177;-50
2023/04/30 07:12:13;;;;;;;17.93;11.93;;;10.30;99.90;;;;;;5034281;28;20189;-48
2023/04/30 07:14:39;;;;;;;17.27;12.47;;;10.40;99.90;;;;;;5034785;28;20185;-48
2023/04/30 07:17:05;;;;;;;16.57;11.33;;;10.50;99.90;;;;;;5033924;28;20180;-50
2023/04/30 07:19:31;;;;;;;21.50;12.40;;;10.60;99.90;;;;;;5034338;28;20681;-50
2023/04/30 07:21:57;;;;;;;15.57;11.53;;;10.70;99.90;;;;;;5034343;28;20204;-51
2023/04/30 07:24:22;;;;;;;19.77;12.53;;;10.70;99.90;;;;;;5016529;28;20284;-50
2023/04/30 07:26:48;;;;;;;20.20;12.70;;;10.80;99.90;;;;;;5034247;28;20173;-49
2023/04/30 07:29:14;;;;;;;16.13;11.20;;;11.10;99.90;;;;;;5034074;28;20581;-49
2023/04/30 07:31:39;;;;;;;16.13;11.77;;;11.20;99.90;;;;;;5034245;28;20192;-48
2023/04/30 07:34:05;;;;;;;20.23;13.03;;;11.30;99.90;;;;;;5016249;28;20684;-50
2023/04/30 07:36:30;;;;;;;17.43;13.30;;;11.40;99.90;;;;;;5034177;28;20181;-50
2023/04/30 07:38:56;;;;;;;16.33;12.80;;;11.50;99.90;;;;;;5033772;28;20641;-50
2023/04/30 07:41:23;;;;;;;15.77;12.57;;;11.60;99.90;;;;;;5033803;28;20177;-50
2023/04/30 07:43:49;;;;;;;15.97;11.57;;;11.60;99.90;;;;;;5033591;28;20208;-49
2023/04/30 07:46:14;;;;;;;15.43;10.77;;;11.70;99.90;;;;;;5016051;28;20344;-51
2023/04/30 07:48:40;;;;;;;16.17;10.60;;;11.90;99.90;;;;;;5033289;28;20560;-51
2023/04/30 07:51:06;;;;;;;15.57;10.97;;;12.20;99.90;;;;;;5032966;28;20177;-49
2023/04/30 07:53:31;;;;;;;13.80;11.30;;;12.40;99.90;;;;;;5032952;28;20207;-51
2023/04/30 07:55:57;;;;;;;14.80;11.97;;;12.50;99.90;;;;;;5032894;28;20169;-51
2023/04/30 07:58:22;;;;;;;14.33;11.47;;;12.90;99.90;;;;;;5032887;28;20627;-51
2023/04/30 08:00:48;;;;;;;13.30;11.07;;;13.20;99.90;;;;;;5033092;28;20703;-52
2023/04/30 08:03:13;;;;;;;17.03;11.20;;;13.40;99.90;;;;;;5032884;28;20192;-50
2023/04/30 08:05:40;;;;;;;14.63;10.63;;;13.30;99.90;;;;;;5032653;28;20267;-50
2023/04/30 08:08:06;;;;;;;13.47;10.80;;;13.40;99.90;;;;;;5032909;28;20180;-48
2023/04/30 08:10:31;;;;;;;16.07;10.37;;;13.60;99.90;;;;;;5033375;28;20184;-50
2023/04/30 08:12:57;;;;;;;16.97;11.87;;;13.90;99.90;;;;;;5032768;28;20680;-51
2023/04/30 08:15:23;;;;;;;15.67;10.73;;;14.20;99.90;;;;;;5032474;28;20177;-49
2023/04/30 08:17:51;;;;;;;18.27;10.77;;;14.50;99.90;;;;;;5032761;28;20177;-47
2023/04/30 08:20:17;;;;;;;16.50;11.63;;;14.50;99.90;;;;;;5032424;28;20177;-51
2023/04/30 08:22:44;;;;;;;15.30;10.77;;;14.50;99.90;;;;;;5032364;28;20250;-49
2023/04/30 08:25:12;;;;;;;14.73;10.80;;;14.60;99.90;;;;;;5032560;28;20614;-50
2023/04/30 08:27:38;;;;;;;14.17;10.60;;;14.90;99.90;;;;;;5032605;28;20176;-49
2023/04/30 08:30:05;;;;;;;16.23;10.87;;;15.00;99.90;;;;;;5036106;28;20177;-50
2023/04/30 08:32:35;;;;;;;13.03;10.30;;;15.10;99.90;;;;;;5035826;28;20193;-50
2023/04/30 08:35:04;;;;;;;14.67;9.90;;;15.10;99.90;;;;;;5036097;28;20184;-48
2023/04/30 08:37:29;;;;;;;12.87;9.97;;;15.10;99.90;;;;;;5035838;28;20204;-46
2023/04/30 08:39:55;;;;;;;14.13;10.00;;;15.10;99.90;;;;;;5035682;28;20273;-48
2023/04/30 08:42:30;;;;;;;13.50;9.70;;;15.20;99.90;;;;;;5035996;28;20204;-47
2023/04/30 08:44:56;;;;;;;16.43;9.77;;;15.20;99.90;;;;;;5035625;28;20188;-48
2023/04/30 08:47:23;;;;;;;15.83;10.30;;;15.20;99.90;;;;;;4998402;28;1073936;-48
2023/04/30 08:49:49;;;;;;;14.73;10.23;;;15.40;99.90;;;;;;5036987;28;20165;-47
2023/04/30 08:52:15;;;;;;;13.27;8.73;;;15.50;99.90;;;;;;5036988;28;20569;-48
2023/04/30 08:54:43;;;;;;;12.87;9.30;;;15.60;99.90;;;;;;5036912;28;20598;-48
2023/04/30 08:57:09;;;;;;;12.90;9.80;;;15.80;99.90;;;;;;5037041;28;20189;-47
2023/04/30 08:59:35;;;;;;;12.23;8.90;;;15.90;99.90;;;;;;5036820;28;20192;-48
2023/04/30 09:02:00;;;;;;;12.70;8.93;;;16.00;99.90;;;;;;5036693;28;20661;-48
2023/04/30 09:04:27;;;;;;;14.10;9.37;;;16.30;99.90;;;;;;5036831;28;20296;-47
2023/04/30 09:07:00;;;;;;;12.43;8.70;;;16.30;99.90;;;;;;5036639;28;20176;-48
2023/04/30 09:09:29;;;;;;;12.90;8.53;;;16.30;99.90;;;;;;5018844;28;20173;-48
2023/04/30 09:12:21;;;;;;;14.20;10.03;;;16.40;99.90;;;;;;5036472;28;20327;-49
2023/04/30 09:15:07;;;;;;;13.97;8.87;;;16.30;99.90;;;;;;5032020;28;20256;-48
2023/04/30 09:17:33;;;;;;;13.37;8.90;;;16.30;99.90;;;;;;5036434;28;20211;-49
2023/04/30 09:20:10;;;;;;;10.10;8.10;;;16.40;99.90;;;;;;5036315;28;20177;-48
2023/04/30 09:22:37;;;;;;;11.83;8.80;;;16.70;99.90;;;;;;5036574;28;20215;-51
2023/04/30 09:25:03;;;;;;;13.80;9.17;;;16.90;99.90;;;;;;5036408;28;20208;-51
2023/04/30 09:27:28;;;;;;;12.53;7.80;;;17.10;99.90;;;;;;5018443;28;20642;-51
2023/04/30 09:29:55;;;;;;;10.47;7.47;;;17.20;99.90;;;;;;5036232;28;20247;-51
2023/04/30 09:32:20;;;;;;;11.10;8.23;;;17.20;99.90;;;;;;5036552;28;20661;-51
2023/04/30 09:34:46;;;;;;;12.13;7.63;;;17.20;99.90;;;;;;5036320;28;20188;-50
2023/04/30 09:37:12;;;;;;;6.50;5.10;;;17.30;99.90;;;;;;5036314;28;20260;-51
2023/04/30 09:39:54;;;;;;;11.47;5.40;;;17.30;99.90;;;;;;5035948;28;20596;-50
2023/04/30 09:42:20;;;;;;;11.70;7.37;;;17.10;99.90;;;;;;5035965;28;20228;-51
2023/04/30 09:44:46;;;;;;;9.47;7.50;;;17.00;99.90;;;;;;5035899;28;20259;-51
2023/04/30 09:47:14;;;;;;;14.60;7.07;;;17.10;99.90;;;;;;5036911;28;20189;-51
2023/04/30 09:49:42;;;;;;;12.87;7.37;;;17.20;99.90;;;;;;5037598;28;20227;-50
2023/04/30 09:52:07;;;;;;;7.07;6.17;;;17.10;99.90;;;;;;5036909;28;20200;-48
2023/04/30 09:54:34;;;;;;;6.30;4.23;;;16.90;99.90;;;;;;5036331;28;20181;-48
2023/04/30 09:57:01;;;;;;;7.83;4.47;;;17.00;99.90;;;;;;5035963;28;20220;-48
2023/04/30 09:59:34;;;;;;;9.10;5.93;;;17.00;99.90;;;;;;5035913;28;20180;-48
2023/04/30 10:02:03;;;;;;;6.40;4.00;;;17.30;99.90;;;;;;5035774;28;20208;-49
2023/04/30 10:04:33;;;;;;;5.63;3.20;;;17.50;99.90;;;;;;5035977;28;20205;-48
2023/04/30 10:07:00;;;;;;;4.13;3.43;;;17.60;99.90;;;;;;5035986;28;20164;-48
2023/04/30 10:09:32;;;;;;;4.90;3.10;;;17.60;99.90;;;;;;5036003;28;20651;-48
2023/04/30 10:11:58;;;;;;;6.40;4.00;;;17.80;99.90;;;;;;5035446;28;20251;-48
2023/04/30 10:14:26;;;;;;;8.73;4.40;;;18.00;99.90;;;;;;5035746;28;20193;-48
2023/04/30 10:17:02;;;;;;;4.50;3.27;;;18.20;99.90;;;;;;5017795;28;20263;-48
2023/04/30 10:19:35;;;;;;;5.80;3.63;;;18.40;99.90;;;;;;5035348;28;20691;-48
2023/04/30 10:22:01;;;;;;;4.57;4.07;;;18.40;99.90;;;;;;5035130;28;20755;-48
2023/04/30 10:24:26;;;;;;;5.03;4.40;;;18.40;99.90;;;;;;5035212;28;20673;-48
2023/04/30 10:26:53;;;;;;;9.17;4.30;;;18.20;99.90;;;;;;5035235;28;20231;-49
2023/04/30 10:29:19;;;;;;;6.20;4.70;;;18.10;99.90;;;;;;5035368;28;20180;-47
2023/04/30 10:31:51;;;;;;;7.30;4.13;;;18.10;99.90;;;;;;5035426;28;20515;-47
2023/04/30 10:34:39;;;;;;;5.13;4.37;;;18.00;99.90;;;;;;5035408;28;20219;-47
2023/04/30 10:37:22;;;;;;;7.00;3.87;;;18.10;99.90;;;;;;5035072;28;20201;-48
2023/04/30 10:39:49;;;;;;;5.53;4.07;;;18.00;99.90;;;;;;5035302;28;20197;-49
2023/04/30 10:42:15;;;;;;;4.17;3.77;;;17.80;99.90;;;;;;5035682;28;20646;-47
2023/04/30 10:44:40;;;;;;;7.23;4.07;;;17.70;99.90;;;;;;5034810;28;20283;-48
2023/04/30 10:47:07;;;;;;;6.00;3.77;;;17.60;99.90;;;;;;5035132;28;20177;-48
2023/04/30 10:49:33;;;;;;;5.20;3.50;;;17.70;99.90;;;;;;5034740;28;20254;-47
2023/04/30 10:52:02;;;;;;;5.00;3.83;;;17.70;99.90;;;;;;5034021;28;20784;-48
2023/04/30 10:54:30;;;;;;;6.73;3.97;;;17.80;99.90;;;;;;5034904;28;20238;-48
2023/04/30 10:57:13;;;;;;;4.93;3.87;;;18.10;99.90;;;;;;5034920;28;20218;-47
2023/04/30 10:59:46;;;;;;;4.80;4.07;;;18.30;99.90;;;;;;5034579;28;20232;-48
2023/04/30 11:02:16;;;;;;;5.10;4.07;;;18.10;99.90;;;;;;5034602;28;20673;-47
2023/04/30 11:05:06;;;;;;;4.07;3.57;;;18.00;99.90;;;;;;5034710;28;20267;-48
2023/04/30 11:07:32;;;;;;;5.17;4.27;;;18.00;99.90;;;;;;5034494;28;20173;-47
2023/04/30 11:09:59;;;;;;;4.70;3.60;;;18.00;99.90;;;;;;5034387;28;20181;-47
2023/04/30 11:12:29;;;;;;;3.67;3.00;;;18.00;99.90;;;;;;5034285;28;20669;-48
2023/04/30 11:15:12;;;;;;;4.27;3.87;;;18.20;99.90;;;;;;5016874;28;20180;-47
2023/04/30 11:17:38;;;;;;;5.77;3.80;;;18.20;99.90;;;;;;5034593;28;20265;-49
2023/04/30 11:20:05;;;;;;;4.60;3.60;;;18.40;99.90;;;;;;5034210;28;20212;-48
2023/04/30 11:22:36;;;;;;;7.87;3.67;;;18.50;99.90;;;;;;5034138;28;20212;-49
2023/04/30 11:25:04;;;;;;;4.67;3.40;;;18.50;99.90;;;;;;5016403;28;20200;-48
2023/04/30 11:27:35;;;;;;;6.90;3.83;;;18.50;99.90;;;;;;5034347;28;20215;-48
2023/04/30 11:30:01;;;;;;;5.23;4.30;;;18.50;99.90;;;;;;5034596;28;20614;-48
2023/04/30 11:32:35;;;;;;;6.20;4.00;;;18.50;99.90;;;;;;5034118;28;20208;-48
2023/04/30 11:35:04;;;;;;;4.13;3.57;;;18.40;99.90;;;;;;5034223;28;20235;-48
2023/04/30 11:37:31;;;;;;;4.17;3.77;;;18.40;99.90;;;;;;5033934;28;20185;-47
2023/04/30 11:40:00;;;;;;;4.03;3.73;;;18.40;99.90;;;;;;5033975;28;20188;-48
2023/04/30 11:42:26;;;;;;;4.43;3.73;;;18.40;99.90;;;;;;5033946;28;20196;-46
2023/04/30 11:44:52;;;;;;;4.20;3.70;;;18.50;99.90;;;;;;5016058;28;20211;-48
2023/04/30 11:47:17;;;;;;;4.53;4.07;;;18.80;99.90;;;;;;5016229;28;20185;-48
2023/04/30 11:49:43;;;;;;;6.37;3.90;;;19.20;99.90;;;;;;5034419;28;20257;-47
2023/04/30 11:52:11;;;;;;;3.97;3.50;;;19.70;99.90;;;;;;5033728;28;20201;-48
2023/04/30 11:54:37;;;;;;;3.80;3.37;;;19.90;99.90;;;;;;5016028;28;20194;-48
2023/04/30 11:57:04;;;;;;;4.63;2.83;;;20.20;99.90;;;;;;5035697;28;20185;-47
2023/04/30 11:59:31;;;;;;;3.97;3.03;;;20.40;99.90;;;;;;5036362;28;20181;-48
2023/04/30 12:01:57;;;;;;;4.57;2.90;;;20.60;99.90;;;;;;5035322;28;20280;-48
2023/04/30 12:04:23;;;;;;;2.83;2.50;;;20.50;99.90;;;;;;5016293;28;20772;-49
2023/04/30 12:06:49;;;;;;;5.33;3.97;;;20.30;99.90;;;;;;5033507;28;20252;-48
2023/04/30 12:09:15;;;;;;;4.33;3.93;;;20.20;99.90;;;;;;5033527;28;20215;-48
2023/04/30 12:11:40;;;;;;;3.77;3.43;;;20.00;99.90;;;;;;5033529;28;20208;-49
2023/04/30 12:14:09;;;;;;;3.73;3.37;;;20.00;99.90;;;;;;5033644;28;20223;-46
2023/04/30 12:16:44;;;;;;;3.77;3.07;;;20.00;99.90;;;;;;5033584;28;20243;-48
2023/04/30 12:19:10;;;;;;;3.37;2.97;;;19.90;99.90;;;;;;5033520;28;20172;-48
2023/04/30 12:21:37;;;;;;;4.53;3.77;;;19.70;99.90;;;;;;5033137;28;20212;-47
2023/04/30 12:24:03;;;;;;;4.00;2.80;;;19.60;99.90;;;;;;5033397;28;20212;-48
2023/04/30 12:26:37;;;;;;;4.90;3.43;;;19.50;99.90;;;;;;5033484;28;20209;-48
2023/04/30 12:29:24;;;;;;;3.00;2.70;;;19.50;99.90;;;;;;5033407;28;20199;-48
2023/04/30 12:31:51;;;;;;;2.70;2.50;;;19.40;99.90;;;;;;5032834;28;20197;-48
2023/04/30 12:34:17;;;;;;;2.60;2.40;;;19.50;99.90;;;;;;5033358;28;20622;-50
2023/04/30 12:36:43;;;;;;;3.00;2.53;;;19.80;99.90;;;;;;5033428;28;20551;-48
2023/04/30 12:39:09;;;;;;;5.10;2.80;;;19.90;99.90;;;;;;5033421;28;20169;-49
2023/04/30 12:41:47;;;;;;;3.23;2.93;;;20.00;99.90;;;;;;5033299;28;20189;-49
2023/04/30 12:44:24;;;;;;;3.57;3.00;;;19.90;99.90;;;;;;5033256;28;20266;-49